Time;durP1;ratioP1;P1;durP2;ratioP2;P2;SDS_P1;SDS_P2;PMS_P1;PMS_P2;Temp;Humidity;BMP_temperature;BMP_pressure;BME280_temperature;BME280_humidity;BME280_pressure;Samples;Min_cycle;Max_cycle;Signal;HPM_P1;HPM_P2
2022/04/20 00:01:47;;;;;;;;;;;7.40;83.60;;;6.88;56.91;96895.72;5052340;28;19961;-69
2022/04/20 00:04:13;;;;;;;;;;;7.40;84.10;;;6.82;57.32;96886.28;5055719;28;19920;-70
2022/04/20 00:06:39;;;;;;;;;;;7.40;84.30;;;6.83;57.98;96897.63;5054221;28;20394;-70
2022/04/20 00:09:05;;;;;;;;;;;7.40;85.30;;;6.75;58.47;96886.50;5069636;28;19979;-70
2022/04/20 00:11:30;;;;;;;;;;;7.40;85.20;;;6.80;59.53;96887.22;5053285;28;20379;-71
2022/04/20 00:13:56;;;;;;;;;;;7.30;86.10;;;6.75;60.26;96886.50;5056307;28;19927;-70
2022/04/20 00:16:21;;;;;;;;;;;7.30;86.80;;;6.66;60.53;96883.25;5057428;28;20380;-68
2022/04/20 00:18:47;;;;;;;;;;;7.30;86.90;;;6.58;61.30;96872.13;5051448;28;20011;-69
2022/04/20 00:21:13;;;;;;;;;;;7.20;87.20;;;6.51;61.57;96878.44;5056512;28;19978;-70
2022/04/20 00:23:38;;;;;;;;;;;7.10;87.50;;;6.43;62.48;96877.84;5048107;28;19924;-70
2022/04/20 00:26:04;;;;;;;;;;;7.10;88.30;;;6.46;63.58;96877.72;5055847;28;19935;-70
2022/04/20 00:28:29;;;;;;;;;;;7.00;89.40;;;6.37;63.83;96884.13;5053449;28;20478;-69
2022/04/20 00:30:55;;;;;;;;;;;7.00;89.50;;;6.37;65.10;96883.22;5053912;28;19920;-70
2022/04/20 00:33:21;;;;;;;;;;;7.00;90.10;;;6.30;65.28;96885.19;5052896;28;19929;-69
2022/04/20 00:35:48;;;;;;;;;;;6.90;90.20;;;6.26;66.04;96887.03;5050971;28;20483;-69
2022/04/20 00:38:13;;;;;;;;;;;6.90;90.30;;;6.21;66.61;96883.69;5054049;28;19924;-69
2022/04/20 00:40:40;;;;;;;;;;;6.90;90.60;;;6.20;67.22;96884.56;5054439;28;20333;-69
2022/04/20 00:43:05;;;;;;;;;;;6.80;90.80;;;6.11;67.94;96884.81;5053830;28;20535;-69
2022/04/20 00:45:31;;;;;;;;;;;6.80;91.00;;;6.00;68.57;96884.28;5055570;28;20338;-70
2022/04/20 00:47:57;;;;;;;;;;;6.70;91.20;;;5.97;68.50;96887.81;5048815;28;20197;-70
2022/04/20 00:50:23;;;;;;;;;;;6.60;91.30;;;5.92;68.94;96887.91;5049996;28;19992;-70
2022/04/20 00:52:48;;;;;;;;;;;6.60;91.50;;;5.92;69.07;96890.53;5052438;28;20522;-70
2022/04/20 00:55:14;;;;;;;;;;;6.60;91.50;;;5.92;69.67;96887.91;5053178;28;19967;-70
2022/04/20 00:57:39;;;;;;;;;;;6.50;91.80;;;5.80;70.05;96888.22;5051447;28;19924;-69
2022/04/20 01:00:05;;;;;;;;;;;6.50;92.00;;;5.79;70.24;96883.03;5055599;28;20007;-69
2022/04/20 01:02:31;;;;;;;;;;;6.40;92.10;;;5.71;71.04;96878.00;5054548;28;19960;-70
2022/04/20 01:04:57;;;;;;;;;;;6.40;92.30;;;5.58;71.44;96864.41;5051051;28;19978;-69
2022/04/20 01:07:22;;;;;;;;;;;6.30;92.50;;;5.66;71.53;96882.50;5054111;28;19933;-70
2022/04/20 01:09:48;;;;;;;;;;;6.30;92.60;;;5.58;72.23;96882.69;5053160;28;19963;-69
2022/04/20 01:12:15;;;;;;;;;;;6.20;92.80;;;5.49;72.89;96882.91;5053314;28;19931;-70
2022/04/20 01:14:41;;;;;;;;;;;6.20;93.10;;;5.45;73.08;96881.28;5052207;28;19920;-69
2022/04/20 01:17:07;;;;;;;;;;;6.10;93.20;;;5.34;73.66;96882.38;5048584;28;20012;-69
2022/04/20 01:19:34;;;;;;;;;;;6.00;93.40;;;5.31;74.23;96889.44;5054234;28;19916;-69
2022/04/20 01:22:02;;;;;;;;;;;6.00;93.70;;;5.24;74.34;96882.66;5053770;28;19932;-70
2022/04/20 01:24:28;;;;;;;;;;;5.90;93.80;;;5.15;74.89;96882.00;5053836;28;19994;-70
2022/04/20 01:26:55;;;;;;;;;;;5.80;94.00;;;5.13;75.49;96877.69;5055224;28;19920;-70
2022/04/20 01:29:21;;;;;;;;;;;5.80;94.30;;;5.05;75.86;96872.63;5053753;28;19921;-69
2022/04/20 01:31:47;;;;;;;;;;;5.80;94.60;;;5.03;76.55;96873.59;5050319;28;20066;-70
2022/04/20 01:34:13;;;;;;;;;;;5.70;94.80;;;4.98;76.55;96871.06;5054944;28;19928;-70
2022/04/20 01:36:38;;;;;;;;;;;5.70;95.00;;;4.93;76.79;96878.16;5052037;28;21094;-70
2022/04/20 01:39:04;;;;;;;;;;;5.60;95.20;;;4.93;76.80;96878.16;5055068;28;19917;-71
2022/04/20 01:41:30;;;;;;;;;;;5.60;95.30;;;4.91;77.14;96886.03;5053702;28;20038;-70
2022/04/20 01:43:56;;;;;;;;;;;5.60;95.40;;;4.89;76.88;96885.19;5053688;28;20115;-70
2022/04/20 01:46:21;;;;;;;;;;;5.60;95.60;;;4.91;76.94;96879.94;5052028;28;19920;-70
2022/04/20 01:48:47;;;;;;;;;;;5.50;95.60;;;4.83;76.69;96876.63;5054210;28;19920;-71
2022/04/20 01:53:57;;;;;;;;;;;5.50;95.90;;;4.77;77.72;96877.63;5054984;28;20520;-70
2022/04/20 01:56:22;;;;;;;;;;;5.40;96.10;;;4.73;77.33;96871.63;5051896;28;19924;-70
2022/04/20 01:58:48;;;;;;;;;;;5.40;96.20;;;4.66;77.93;96877.00;5054385;28;19985;-71
2022/04/20 02:03:58;;;;;;;;;;;5.30;96.80;;;4.55;78.82;96878.09;5056634;28;19931;-70
2022/04/20 02:06:24;;;;;;;;;;;5.30;97.00;;;4.52;78.94;96874.69;5054413;28;19917;-70
2022/04/20 02:08:49;;;;;;;;;;;5.20;97.20;;;4.51;79.03;96880.81;5050398;28;20392;-70
2022/04/20 02:11:15;;;;;;;;;;;5.20;97.40;;;4.50;79.20;96881.72;5054118;28;19943;-70
2022/04/20 02:13:41;;;;;;;;;;;5.20;97.50;;;4.42;79.14;96861.00;5052442;28;20265;-70
2022/04/20 02:16:06;;;;;;;;;;;5.10;97.70;;;4.49;79.20;96878.25;5054308;28;20482;-70
2022/04/20 02:18:32;;;;;;;;;;;5.10;97.80;;;4.46;79.51;96873.06;5055480;28;19943;-70
2022/04/20 02:20:58;;;;;;;;;;;5.10;98.00;;;4.42;79.59;96881.88;5057223;28;20372;-70
2022/04/20 02:23:23;;;;;;;;;;;5.10;98.10;;;4.32;80.08;96880.34;5054701;28;19931;-71
2022/04/20 02:25:49;;;;;;;;;;;5.00;98.40;;;4.29;80.72;96881.28;5055046;28;19960;-71
2022/04/20 02:28:14;;;;;;;;;;;4.90;98.80;;;4.22;81.31;96879.69;5053783;28;19920;-70
2022/04/20 02:30:40;;;;;;;;;;;4.90;99.10;;;4.17;81.60;96881.50;5056491;28;20413;-71
2022/04/20 02:33:06;;;;;;;;;;;4.90;99.50;;;4.16;81.67;96875.44;5057124;28;20019;-70
2022/04/20 02:35:31;;;;;;;;;;;4.80;99.60;;;3.98;81.87;96855.78;5051705;28;19970;-70
2022/04/20 02:37:58;;;;;;;;;;;4.80;99.80;;;4.12;81.90;96884.19;5055769;28;20139;-70
2022/04/20 02:40:24;;;;;;;;;;;4.80;99.90;;;4.10;81.99;96885.13;5050069;28;20303;-70
2022/04/20 02:42:49;;;;;;;;;;;4.80;99.90;;;4.07;82.32;96877.34;5051174;28;19920;-70
2022/04/20 02:45:16;;;;;;;;;;;4.80;99.90;;;4.02;82.89;96874.84;5050770;28;19956;-70
2022/04/20 02:47:43;;;;;;;;;;;4.70;99.90;;;4.01;83.29;96871.38;5052272;28;19921;-70
2022/04/20 02:50:08;;;;;;;;;;;4.70;99.90;;;3.97;83.83;96882.75;5055097;28;19920;-69
2022/04/20 02:52:34;;;;;;;;;;;4.70;99.90;;;3.92;84.27;96883.75;5053608;28;19928;-69
2022/04/20 02:55:00;;;;;;;;;;;4.60;99.90;;;3.87;84.60;96873.38;5051914;28;19927;-69
2022/04/20 02:57:26;;;;;;;;;;;4.60;99.90;;;3.78;85.04;96866.56;5053577;28;19920;-69
2022/04/20 02:59:52;;;;;;;;;;;4.50;99.90;;;3.74;85.21;96859.72;5059215;22;20106;-57
2022/04/20 03:02:17;;;;;;;;;;;4.50;99.90;;;3.74;85.78;96879.72;5032133;28;19917;-57
2022/04/20 03:04:43;;;;;;;;;;;4.40;99.90;;;3.61;86.35;96861.69;5031311;28;20115;-57
2022/04/20 03:07:09;;;;;;;;;;;4.40;99.90;;;3.63;86.76;96867.72;5015434;28;20403;-57
2022/04/20 03:09:35;;;;;;;;;;;4.30;99.90;;;3.61;87.07;96873.88;5026702;28;19956;-57
2022/04/20 03:12:01;;;;;;;;;;;4.30;99.90;;;3.55;87.38;96872.22;5015383;28;20430;-57
2022/04/20 03:14:26;;;;;;;;;;;4.20;99.90;;;3.52;88.09;96877.50;5013481;28;19925;-57
2022/04/20 03:16:52;;;;;;;;;;;4.20;99.90;;;3.48;88.38;96880.16;5014665;28;20381;-58
2022/04/20 03:19:17;;;;;;;;;;;4.20;99.90;;;3.44;88.70;96884.56;5020548;28;20377;-57
2022/04/20 03:21:43;;;;;;;;;;;4.10;99.90;;;3.41;88.64;96875.06;5018034;28;19964;-57
2022/04/20 03:24:09;;;;;;;;;;;4.10;99.90;;;3.40;88.80;96883.75;5011584;28;19974;-57
2022/04/20 03:26:34;;;;;;;;;;;4.10;99.90;;;3.36;89.06;96879.50;5013397;28;20281;-57
2022/04/20 03:29:00;;;;;;;;;;;4.00;99.90;;;3.33;89.55;96881.28;5016567;28;20361;-57
2022/04/20 03:31:26;;;;;;;;;;;4.00;99.90;;;3.29;89.80;96879.63;5016913;28;19917;-57
2022/04/20 03:33:51;;;;;;;;;;;4.00;99.90;;;3.27;90.05;96889.19;5012138;28;19971;-57
2022/04/20 03:36:17;;;;;;;;;;;3.90;99.90;;;3.25;90.40;96889.25;5019809;28;19925;-57
2022/04/20 03:38:43;;;;;;;;;;;3.90;99.90;;;3.09;90.50;96867.78;5014254;28;20006;-57
2022/04/20 03:41:09;;;;;;;;;;;3.90;99.90;;;3.19;90.60;96877.16;5033373;28;19925;-57
2022/04/20 03:43:34;;;;;;;;;;;3.90;99.90;;;3.16;90.72;96886.75;5016504;28;20276;-57
2022/04/20 03:46:00;;;;;;;;;;;3.80;99.90;;;3.07;90.90;96874.75;5017210;28;20369;-57
2022/04/20 03:48:26;;;;;;;;;;;3.80;99.90;;;3.12;90.97;96887.69;5014759;28;19952;-57
2022/04/20 03:50:51;;;;;;;;;;;3.80;99.90;;;3.08;90.89;96876.47;5016591;28;19929;-57
2022/04/20 03:53:18;;;;;;;;;;;3.70;99.90;;;3.03;91.28;96870.47;5012831;28;20345;-57
2022/04/20 03:55:44;;;;;;;;;;;3.70;99.90;;;3.03;91.60;96880.88;5016589;28;19944;-57
2022/04/20 03:58:10;;;;;;;;;;;3.70;99.90;;;2.95;91.39;96868.00;5019414;28;19921;-57
2022/04/20 04:00:35;;;;;;;;;;;3.70;99.90;;;2.97;91.37;96876.63;5015051;28;19928;-57
2022/04/20 04:03:01;;;;;;;;;;;3.70;99.90;;;2.92;91.32;96875.00;5012155;28;20408;-56
2022/04/20 04:05:27;;;;;;;;;;;3.60;99.90;;;2.91;91.11;96879.34;5016133;28;20091;-57
2022/04/20 04:07:52;;;;;;;;;;;3.60;99.90;;;2.90;90.73;96877.59;5015429;28;19921;-57
2022/04/20 04:10:18;;;;;;;;;;;3.60;99.90;;;2.88;90.48;96879.38;5019076;28;20447;-57
2022/04/20 04:12:44;;;;;;;;;;;3.50;99.90;;;2.83;90.82;96875.97;5016165;28;20388;-57
2022/04/20 04:15:10;;;;;;;;;;;3.60;99.90;;;2.85;90.88;96888.13;5017977;28;20300;-57
2022/04/20 04:17:35;;;;;;;;;;;3.50;99.90;;;2.80;91.37;96876.00;5017824;28;19975;-57
2022/04/20 04:20:01;;;;;;;;;;;3.50;99.90;;;2.79;91.95;96882.97;5016104;28;19998;-57
2022/04/20 04:22:27;;;;;;;;;;;3.50;99.90;;;2.80;91.83;96878.63;5014555;28;19925;-57
2022/04/20 04:24:53;;;;;;;;;;;3.50;99.90;;;2.75;91.57;96859.63;5013817;28;19925;-57
2022/04/20 04:27:20;;;;;;;;;;;3.50;99.90;;;2.79;91.45;96869.97;5019847;28;20132;-57
2022/04/20 04:29:46;;;;;;;;;;;3.50;99.90;;;2.80;91.46;96870.81;5018780;28;19928;-58
2022/04/20 04:32:12;;;;;;;;;;;3.50;99.90;;;2.80;91.59;96876.91;5014850;28;20310;-57
2022/04/20 04:34:39;;;;;;;;;;;3.50;99.90;;;2.83;91.51;96878.59;5015995;28;19920;-57
2022/04/20 04:37:05;;;;;;;;;;;3.50;99.90;;;2.82;91.83;96872.53;5018127;28;19967;-57
2022/04/20 04:39:30;;;;;;;;;;;3.50;99.90;;;2.81;91.79;96877.75;5017173;28;20008;-57
2022/04/20 04:42:02;;;;;;;;;;;3.50;99.90;;;2.82;91.94;96875.13;5017426;28;19929;-57
2022/04/20 04:44:28;;;;;;;;;;;3.50;99.90;;;2.84;92.21;96878.56;5015375;28;19925;-57
2022/04/20 04:49:38;;;;;;;;;;;3.60;99.90;;;2.96;91.81;96890.56;5019444;28;20300;-58
2022/04/20 04:52:06;;;;;;;;;;;3.60;99.90;;;3.10;90.43;96890.31;5023579;28;19921;-58
2022/04/20 04:54:33;;;;;;;;;;;3.70;99.90;;;3.29;88.64;96890.91;5019754;28;20371;-58
2022/04/20 04:56:59;;;;;;;;;;;3.90;99.90;;;3.36;88.30;96887.31;5021948;28;20451;-58
2022/04/20 04:59:24;;;;;;;;;;;4.00;99.90;;;3.42;87.72;96881.13;5022328;28;19925;-58
2022/04/20 05:01:50;;;;;;;;;;;4.10;99.90;;;3.50;86.80;96879.28;5014985;28;20692;-58
2022/04/20 05:04:16;;;;;;;;;;;4.20;99.90;;;3.59;86.71;96894.75;5019318;28;19953;-57
2022/04/20 05:06:42;;;;;;;;;;;4.20;99.90;;;3.77;85.54;96887.50;5019058;28;20020;-58
2022/04/20 05:09:07;;;;;;;;;;;4.30;99.90;;;3.83;84.91;96897.81;5018550;28;19979;-57
2022/04/20 05:11:33;;;;;;;;;;;4.40;99.90;;;3.83;84.53;96903.88;5019933;28;19921;-58
2022/04/20 05:13:59;;;;;;;;;;;4.50;99.90;;;3.87;84.85;96894.25;5019531;28;20405;-58
2022/04/20 05:16:24;;;;;;;;;;;4.50;99.90;;;3.91;84.46;96893.31;5019033;28;19921;-58
2022/04/20 05:18:51;;;;;;;;;;;4.60;99.90;;;3.96;84.01;96888.84;5021481;28;19964;-57
2022/04/20 05:21:17;;;;;;;;;;;4.60;99.90;;;4.07;83.07;96900.84;5014789;28;20341;-58
2022/04/20 05:23:43;;;;;;;;;;;4.70;99.90;;;4.11;82.36;96885.09;5020530;28;19932;-57
2022/04/20 05:26:08;;;;;;;;;;;4.80;99.90;;;4.22;81.63;96890.13;5020704;28;19921;-57
2022/04/20 05:28:34;;;;;;;;;;;4.80;99.90;;;4.23;81.59;96891.81;5021303;28;19959;-57
2022/04/20 05:31:00;;;;;;;;;;;4.90;99.90;;;4.38;80.62;96898.50;5016809;28;20384;-58
2022/04/20 05:33:25;;;;;;;;;;;5.00;99.90;;;4.38;80.25;96888.91;5016303;28;20345;-58
2022/04/20 05:35:51;;;;;;;;;;;5.00;99.90;;;4.45;81.12;96892.25;5019574;28;19970;-58
2022/04/20 05:44:12;;;;;;;;;;;5.20;99.90;;;4.62;80.64;96897.13;5006324;28;19924;-58
2022/04/20 05:46:39;;;;;;;;;;;5.30;99.90;;;4.63;79.42;96891.00;5013798;28;20171;-58
2022/04/20 05:49:04;;;;;;;;;;;5.30;99.90;;;4.72;79.62;96898.66;5015421;28;20458;-58
2022/04/20 05:51:30;;;;;;;;;;;5.40;99.90;;;4.73;78.30;96899.50;5020154;28;19933;-58
2022/04/20 05:53:56;;;;;;;;;;;5.40;99.90;;;4.83;77.88;96901.03;5020403;28;19980;-58
2022/04/20 05:56:21;;;;;;;;;;;5.50;99.90;;;4.92;77.72;96910.41;5014439;28;20404;-58
2022/04/20 05:58:50;;;;;;;;;;;5.60;99.90;;;4.92;76.61;96908.66;5016903;28;19921;-58
2022/04/20 06:01:16;;;;;;;;;;;5.60;99.90;;;5.27;74.21;96906.97;5014294;28;20408;-58
2022/04/20 06:03:42;;;;;;;;;;;5.70;99.90;;;5.15;75.14;96902.03;5015458;28;19932;-58
2022/04/20 06:06:08;;;;;;;;;;;5.80;99.90;;;5.27;73.61;96906.13;5016563;28;19920;-58
2022/04/20 06:08:34;;;;;;;;;;;5.90;99.90;;;5.24;73.66;96906.19;5017810;28;19959;-58
2022/04/20 06:11:00;;;;;;;;;;;5.90;99.90;;;5.32;73.41;96906.88;5012562;28;19965;-58
2022/04/20 06:13:27;;;;;;;;;;;5.90;99.90;;;5.36;72.92;96911.13;5015639;28;20572;-57
2022/04/20 06:15:54;;;;;;;;;;;6.00;99.90;;;5.40;72.98;96915.41;5015738;28;19918;-58
2022/04/20 06:18:20;;;;;;;;;;;6.10;99.90;;;5.40;73.26;96910.19;5018479;28;19927;-58
2022/04/20 06:20:46;;;;;;;;;;;6.10;99.90;;;5.51;72.53;96923.84;5013244;28;19917;-58
2022/04/20 06:23:12;;;;;;;;;;;6.20;99.90;;;5.63;72.39;96924.44;5018326;28;20428;-58
2022/04/20 06:25:37;;;;;;;;;;;6.20;99.90;;;5.64;71.90;96918.31;5018609;28;19918;-58
2022/04/20 06:28:04;;;;;;;;;;;6.30;99.90;;;5.64;71.83;96916.53;5021455;28;19928;-58
2022/04/20 06:30:29;;;;;;;;;;;6.30;99.90;;;5.74;71.52;96917.16;5018306;28;19921;-58
2022/04/20 06:32:55;;;;;;;;;;;6.40;99.90;;;5.91;69.30;96909.75;5016254;28;19936;-58
2022/04/20 06:35:21;;;;;;;;;;;6.50;99.90;;;5.88;69.56;96928.13;5017007;28;20262;-58
2022/04/20 06:37:47;;;;;;;;;;;6.50;99.90;;;5.91;69.57;96911.50;5017851;28;19960;-58
2022/04/20 06:40:12;;;;;;;;;;;6.60;99.90;;;6.00;68.85;96913.91;5016308;28;20399;-58
2022/04/20 06:42:39;;;;;;;;;;;6.60;99.90;;;6.10;67.63;96914.50;5017959;28;19917;-58
2022/04/20 06:45:05;;;;;;;;;;;6.70;99.90;;;6.09;67.91;96923.28;5013103;28;20015;-58
2022/04/20 06:47:33;;;;;;;;;;;6.80;99.90;;;6.21;66.62;96912.47;5018305;28;20448;-58
2022/04/20 06:49:59;;;;;;;;;;;6.80;99.90;;;6.21;67.08;96915.09;5015755;28;20258;-58
2022/04/20 07:00:38;;;;;;;;;;;7.10;99.90;;;6.47;66.76;96913.50;5016124;28;19932;-60
2022/04/20 07:03:06;;;;;;;;;;;7.20;99.90;;;6.56;69.04;96908.00;5012430;28;19917;-54
2022/04/20 07:05:32;;;;;;;;;;;7.20;99.90;;;6.71;64.46;96904.06;5012212;28;19921;-51
2022/04/20 07:07:58;;;;;;;;;;;7.40;99.90;;;6.82;63.77;96888.03;5015669;28;20007;-57
2022/04/20 07:10:24;;;;;;;;;;;7.50;99.90;;;7.04;61.57;96909.22;5018741;28;20012;-60
2022/04/20 07:12:51;;;;;;;;;;;7.60;99.10;;;7.12;61.17;96899.34;5013426;28;19925;-57
2022/04/20 07:15:16;;;;;;;;;;;7.80;98.80;;;7.17;60.72;96902.66;5014960;28;20418;-59
2022/04/20 07:17:42;;;;;;;;;;;7.80;98.50;;;7.24;61.01;96905.97;5008221;28;20391;-59
2022/04/20 07:20:09;;;;;;;;;;;7.90;98.50;;;7.32;61.95;96900.47;5016079;28;19925;-63
2022/04/20 07:22:35;;;;;;;;;;;8.00;98.80;;;7.46;59.94;96908.75;5015600;28;19961;-63
2022/04/20 07:25:01;;;;;;;;;;;8.10;98.20;;;7.44;58.88;96884.34;5013451;28;20341;-55
2022/04/20 07:27:26;;;;;;;;;;;8.10;97.50;;;7.53;59.24;96905.03;5008227;28;19917;-55
2022/04/20 07:29:52;;;;;;;;;;;8.20;97.40;;;7.60;59.80;96892.56;5005202;28;20452;-67
2022/04/20 07:32:18;;;;;;;;;;;8.20;97.70;;;7.70;59.11;96886.13;5001299;28;20043;-67
2022/04/20 07:34:43;;;;;;;;;;;8.30;97.40;;;7.75;57.79;96878.06;5012197;28;20304;-67
2022/04/20 07:37:09;;;;;;;;;;;8.40;97.00;;;7.94;57.30;96894.91;5017389;28;20036;-69
2022/04/20 07:39:35;;;;;;;;;;;8.50;96.40;;;8.10;56.11;96897.00;5024999;28;19963;-69
2022/04/20 07:42:00;;;;;;;;;;;8.70;96.10;;;8.13;56.14;96907.38;5015625;28;19926;-67
2022/04/20 07:44:26;;;;;;;;;;;8.70;95.70;;;8.16;54.77;96905.50;5018213;28;20428;-65
2022/04/20 07:46:51;;;;;;;;;;;8.80;95.30;;;8.36;55.49;96911.84;5014415;28;19975;-66
2022/04/20 07:52:01;;;;;;;;;;;8.90;94.90;;;8.35;55.02;96912.75;5013772;28;19924;-66
2022/04/20 07:54:26;;;;;;;;;;;8.90;94.90;;;8.54;56.15;96919.09;5018507;28;19921;-66
2022/04/20 07:56:52;;;;;;;;;;;9.00;95.70;;;8.69;54.50;96920.31;5014889;28;19969;-65
2022/04/20 07:59:18;;;;;;;;;;;9.20;95.00;;;8.66;54.04;96912.53;5014994;28;20287;-65
2022/04/20 08:01:43;;;;;;;;;;;9.20;94.40;;;8.71;54.61;96918.47;5014221;28;20392;-65
2022/04/20 08:04:09;;;;;;;;;;;9.20;94.60;;;8.84;54.53;96904.88;5008213;28;20047;-64
2022/04/20 08:06:35;;;;;;;;;;;9.30;94.70;;;8.88;54.26;96906.44;5014405;28;19996;-65
2022/04/20 08:09:00;;;;;;;;;;;9.40;94.60;;;8.96;54.33;96921.03;5013704;28;19959;-65
2022/04/20 08:11:26;;;;;;;;;;;9.50;94.50;;;9.07;53.23;96912.72;5016827;28;20020;-64
2022/04/20 08:14:10;;;;;;;;;;;9.50;93.80;;;9.10;52.55;96915.25;5017508;28;20391;-67
2022/04/20 08:16:36;;;;;;;;;;;9.60;93.20;;;9.22;52.87;96923.56;5016275;28;19925;-66
2022/04/20 08:19:02;;;;;;;;;;;9.70;93.50;;;9.20;51.26;96917.50;5017083;28;19913;-65
2022/04/20 08:21:27;;;;;;;;;;;9.80;92.60;;;9.28;50.67;96913.66;5018193;28;19947;-56
2022/04/20 08:23:53;;;;;;;;;;;9.70;92.20;;;9.36;52.21;96918.63;5021259;28;20439;-65
2022/04/20 08:26:19;;;;;;;;;;;9.80;92.80;;;9.44;52.63;96913.03;5010790;28;19921;-65
2022/04/20 08:28:45;;;;;;;;;;;9.90;92.90;;;9.53;49.75;96916.19;5009977;28;20688;-65
2022/04/20 08:31:10;;;;;;;;;;;10.00;92.30;;;9.51;51.23;96910.13;5005506;28;19925;-66
2022/04/20 08:33:36;;;;;;;;;;;10.00;92.00;;;9.52;50.25;96910.97;5009311;28;19925;-67
2022/04/20 08:36:02;;;;;;;;;;;10.10;91.50;;;9.61;49.11;96915.00;5002236;28;20019;-65
2022/04/20 08:38:30;;;;;;;;;;;10.10;90.60;;;9.55;50.65;96916.97;5015000;28;20483;-67
2022/04/20 08:40:59;;;;;;;;;;;10.10;91.20;;;9.59;51.13;96915.06;5016156;28;19921;-66
2022/04/20 08:43:24;;;;;;;;;;;10.10;91.70;;;9.66;50.04;96913.91;5019514;28;19935;-63
2022/04/20 08:45:52;;;;;;;;;;;10.20;91.60;;;9.75;50.13;96926.69;5015730;28;20530;-61
2022/04/20 08:48:18;;;;;;;;;;;10.20;91.30;;;9.59;49.01;96896.63;5019259;28;19925;-64
2022/04/20 08:50:44;;;;;;;;;;;10.30;90.50;;;9.82;49.03;96921.19;5019474;28;19983;-62
2022/04/20 08:53:10;;;;;;;;;;;10.30;90.30;;;9.92;49.00;96925.13;5019880;28;20020;-62
2022/04/20 08:55:36;;;;;;;;;;;10.40;90.50;;;9.90;48.81;96916.44;5021240;28;19928;-61
2022/04/20 08:58:03;;;;;;;;;;;10.40;89.80;;;9.98;48.65;96914.34;5016866;28;19978;-61
2022/04/20 09:00:29;;;;;;;;;;;10.40;90.10;;;10.05;48.45;96914.91;5014582;28;20004;-62
2022/04/20 09:02:56;;;;;;;;;;;10.50;90.00;;;10.12;47.76;96913.72;5019753;28;19929;-62
2022/04/20 09:05:29;;;;;;;;;;;10.60;88.50;;;10.00;47.72;96877.41;5020426;28;19921;-63
2022/04/20 09:07:56;;;;;;;;;;;10.60;87.70;;;10.26;46.99;96899.97;5017461;28;20015;-63
2022/04/20 09:10:21;;;;;;;;;;;10.80;87.20;;;10.41;44.60;96904.63;5015100;28;20067;-62
2022/04/20 09:13:02;;;;;;;;;;;10.80;83.70;;;10.25;44.77;96906.19;5017371;28;19933;-63
2022/04/20 09:15:31;;;;;;;;;;;10.80;83.20;;;10.19;43.60;96895.88;5014987;28;19921;-62
2022/04/20 09:17:58;;;;;;;;;;;10.80;81.80;;;10.33;46.64;96898.81;5008251;28;20373;-63
2022/04/20 09:20:23;;;;;;;;;;;10.80;85.00;;;10.41;47.63;96895.81;5009717;28;19971;-62
2022/04/20 09:23:04;;;;;;;;;;;10.90;86.00;;;10.60;44.82;96902.00;5010432;28;19929;-63
2022/04/20 09:25:37;;;;;;;;;;;11.00;83.20;;;10.63;44.06;96901.00;5008608;28;20500;-63
2022/04/20 09:28:04;;;;;;;;;;;11.10;82.60;;;10.71;41.56;96893.59;5009160;28;19953;-62
2022/04/20 09:30:38;;;;;;;;;;;11.20;78.70;;;10.62;43.85;96894.00;5007098;28;20003;-62
2022/04/20 09:33:07;;;;;;;;;;;11.10;79.50;;;10.56;43.10;96902.22;5011916;28;20316;-62
2022/04/20 09:35:47;;;;;;;;;;;11.10;78.70;;;10.62;42.81;96899.28;5009331;28;20380;-62
2022/04/20 09:38:13;;;;;;;;;;;11.10;79.10;;;10.66;42.10;96892.97;5016556;28;19917;-62
2022/04/20 09:40:39;;;;;;;;;;;11.10;78.60;;;10.66;42.58;96891.19;5012250;28;20015;-63
2022/04/20 09:43:15;;;;;;;;;;;11.20;78.00;;;10.70;43.46;96905.09;5006085;28;20044;-63
2022/04/20 09:45:41;;;;;;;;;;;11.20;78.30;;;10.73;42.75;96906.72;5006947;28;19983;-63
2022/04/20 09:51:11;;;;;;;;;;;11.20;78.10;;;10.78;43.19;96902.94;5009241;28;20404;-62
2022/04/20 09:53:37;;;;;;;;;;;11.30;78.50;;;10.78;40.43;96902.94;5005758;28;19952;-62
2022/04/20 09:56:19;;;;;;;;;;;11.30;74.90;;;10.87;39.91;96897.28;5001978;28;20006;-62
2022/04/20 09:58:46;;;;;;;;;;;11.30;73.80;;;10.91;40.08;96892.72;5003215;28;19925;-62
2022/04/20 10:01:25;;;;;;;;;;;11.40;72.90;;;11.15;40.00;96884.56;5005581;28;20043;-62
2022/04/20 10:03:54;;;;;;;;;;;11.50;73.70;;;11.11;39.26;96883.84;5009229;28;19921;-63
2022/04/20 10:06:21;;;;;;;;;;;11.60;71.20;;;11.10;39.66;96886.56;5010839;28;20763;-63
2022/04/20 10:08:46;;;;;;;;;;;11.60;70.30;;;11.11;40.31;96869.78;5006006;28;19963;-63
2022/04/20 10:11:14;;;;;;;;;;;11.60;72.50;;;11.15;41.00;96872.22;5006480;28;20459;-63
2022/04/20 10:13:40;;;;;;;;;;;11.70;73.50;;;11.21;41.43;96871.91;5010948;28;20535;-63
2022/04/20 10:16:08;;;;;;;;;;;11.70;74.40;;;11.32;42.31;96867.91;5012065;28;19913;-63
2022/04/20 10:18:39;;;;;;;;;;;11.80;75.20;;;11.39;41.16;96870.16;4998502;28;20278;-62
2022/04/20 10:21:12;;;;;;;;;;;11.90;74.60;;;11.36;39.28;96870.34;5008715;28;20598;-62
2022/04/20 10:23:47;;;;;;;;;;;11.90;71.90;;;11.39;39.54;96864.88;5007314;28;19979;-62
2022/04/20 10:26:13;;;;;;;;;;;11.90;70.30;;;11.47;39.03;96872.44;5003395;28;19929;-62
2022/04/20 10:28:48;;;;;;;;;;;11.90;70.30;;;11.38;41.29;96867.63;5015925;28;20257;-62
2022/04/20 10:31:42;;;;;;;;;;;11.90;72.50;;;11.48;39.84;96868.88;5010494;28;19928;-61
2022/04/20 10:34:12;;;;;;;;;;;11.90;72.20;;;11.45;40.47;96861.97;5009926;28;20019;-61
2022/04/20 10:36:38;;;;;;;;;;;12.00;72.70;;;11.41;39.03;96857.78;5013146;28;19999;-62
2022/04/20 10:39:20;;;;;;;;;;;11.90;70.00;;;11.37;40.57;96845.63;5006700;28;20392;-63
2022/04/20 10:42:22;;;;;;;;;;;11.90;70.70;;;11.60;40.25;96841.00;5010416;28;20039;-62
2022/04/20 10:45:17;;;;;;;;;;;12.00;72.30;;;11.66;41.54;96845.97;4962723;28;20410;-63
2022/04/20 10:47:43;;;;;;;;;;;12.10;73.00;;;11.90;41.30;96843.94;5006922;28;20280;-62
2022/04/20 10:50:23;;;;;;;;;;;12.30;73.50;;;11.98;40.33;96844.38;5015614;28;20111;-62
2022/04/20 10:52:57;;;;;;;;;;;12.40;72.00;;;11.98;38.99;96840.88;5016082;28;19953;-62
2022/04/20 10:55:28;;;;;;;;;;;12.40;69.40;;;12.13;38.19;96840.09;5018796;28;19917;-60
2022/04/20 10:57:55;;;;;;;;;;;12.40;68.60;;;11.98;39.97;96839.09;5019001;28;20392;-62
2022/04/20 11:00:21;;;;;;;;;;;12.50;69.70;;;12.06;39.40;96851.03;5014277;28;19956;-61
2022/04/20 11:02:48;;;;;;;;;;;12.50;70.00;;;12.08;37.67;96844.75;5015550;28;20095;-62
2022/04/20 11:05:14;;;;;;;;;;;12.60;67.90;;;11.91;38.61;96821.84;5017369;28;20361;-62
2022/04/20 11:08:00;;;;;;;;;;;12.50;68.00;;;12.05;37.55;96846.72;5014749;28;19932;-62
2022/04/20 11:10:26;;;;;;;;;;;12.50;66.70;;;11.97;36.00;96832.09;5010774;28;19936;-62
2022/04/20 11:18:40;;;;;;;;;;;12.40;65.40;;;11.66;36.30;96787.88;5010112;28;20071;-61
2022/04/20 11:21:11;;;;;;;;;;;12.40;64.30;;;11.98;36.82;96819.75;5012014;28;20451;-61
2022/04/20 11:23:49;;;;;;;;;;;12.40;64.70;;;12.06;37.64;96817.56;5021258;28;19928;-62
2022/04/20 11:26:19;;;;;;;;;;;12.50;65.40;;;12.04;37.42;96803.56;5016738;28;19921;-61
2022/04/20 11:28:46;;;;;;;;;;;12.50;65.00;;;12.07;37.41;96816.63;5013240;28;19928;-61
2022/04/20 11:31:12;;;;;;;;;;;12.60;65.60;;;12.10;37.27;96802.41;5016615;28;19932;-61
2022/04/20 11:33:38;;;;;;;;;;;12.60;65.20;;;12.17;37.62;96809.91;5006210;28;19955;-61
2022/04/20 11:36:05;;;;;;;;;;;12.60;65.70;;;12.27;38.28;96804.13;5016038;28;19964;-61
2022/04/20 11:38:41;;;;;;;;;;;12.70;65.30;;;12.30;35.44;96799.53;5005801;28;19975;-61
2022/04/20 11:41:07;;;;;;;;;;;12.80;61.90;;;12.31;35.78;96800.38;5010481;28;19998;-62
2022/04/20 11:43:34;;;;;;;;;;;12.80;62.50;;;12.31;36.23;96801.25;5008974;28;19924;-62
2022/04/20 11:46:00;;;;;;;;;;;12.80;62.90;;;12.34;36.18;96794.94;5007837;28;23890;-62
2022/04/20 11:48:26;;;;;;;;;;;12.80;62.50;;;12.24;36.42;96797.25;5013049;28;20039;-62
2022/04/20 11:50:56;;;;;;;;;;;12.80;63.30;;;12.23;37.66;96791.06;5014722;28;20046;-62
2022/04/20 11:53:38;;;;;;;;;;;12.70;64.70;;;12.33;35.86;96791.44;5013537;28;19929;-63
2022/04/20 11:56:07;;;;;;;;;;;12.80;62.50;;;12.48;36.00;96797.69;5012809;28;19921;-63
2022/04/20 11:58:37;;;;;;;;;;;12.90;62.80;;;12.57;36.40;96780.47;5014496;28;19932;-62
2022/04/20 12:01:11;;;;;;;;;;;13.00;63.30;;;12.70;36.48;96785.94;5015868;28;20553;-62
2022/04/20 12:03:41;;;;;;;;;;;13.10;62.80;;;12.74;35.84;96791.00;5009928;28;22338;-63